Time;durP1;ratioP1;P1;durP2;ratioP2;P2;SDS_P1;SDS_P2;PMS_P1;PMS_P2;Temp;Humidity;BMP_temperature;BMP_pressure;BME280_temperature;BME280_humidity;BME280_pressure;Samples;Min_cycle;Max_cycle;Signal;HPM_P1;HPM_P2
2022/06/21 00:00:05;;;;;;;5.97;3.40;;;;;;;19.26;76.48;96503.47;5007319;28;20062;-62
2022/06/21 00:02:33;;;;;;;3.60;3.30;;;;;;;18.82;76.52;96469.69;5005942;28;20065;-62
2022/06/21 00:05:00;;;;;;;4.40;3.30;;;;;;;18.95;76.33;96462.94;5007097;28;20492;-62
2022/06/21 00:07:28;;;;;;;4.05;3.65;;;;;;;19.19;76.46;96498.03;5005697;28;20582;-61
2022/06/21 00:09:55;;;;;;;3.30;3.00;;;;;;;19.12;76.68;96503.81;5005966;28;20089;-63
2022/06/21 00:12:23;;;;;;;4.00;3.30;;;;;;;19.03;79.35;96503.63;5005809;28;20050;-63
2022/06/21 00:14:50;;;;;;;6.30;4.25;;;;;;;18.99;82.19;96500.13;5005345;28;20160;-62
2022/06/21 00:17:20;;;;;;;5.55;4.20;;;;;;;18.94;82.71;96503.47;5005958;28;20065;-62
2022/06/21 00:19:48;;;;;;;5.32;4.30;;;;;;;18.72;83.53;96474.34;5006951;28;20058;-63
2022/06/21 00:22:18;;;;;;;5.03;3.60;;;;;;;18.80;84.25;96497.41;5005215;28;20683;-62
2022/06/21 00:24:45;;;;;;;4.43;4.03;;;;;;;18.56;84.94;96488.34;5005379;28;20049;-63
2022/06/21 00:27:19;;;;;;;4.75;4.25;;;;;;;18.41;85.42;96463.84;5006689;28;20057;-62
2022/06/21 00:29:47;;;;;;;6.72;4.03;;;;;;;18.45;85.50;96487.78;5005414;28;20053;-63
2022/06/21 00:32:17;;;;;;;4.82;4.18;;;;;;;18.04;86.00;96448.22;5006779;28;20072;-62
2022/06/21 00:34:45;;;;;;;5.78;3.83;;;;;;;18.27;86.47;96501.41;5006686;28;20547;-63
2022/06/21 00:37:16;;;;;;;9.05;4.45;;;;;;;18.30;86.44;96494.13;5005411;28;20050;-62
2022/06/21 00:39:43;;;;;;;4.82;4.40;;;;;;;18.23;87.08;96492.25;5007070;28;20065;-63
2022/06/21 00:42:19;;;;;;;5.75;4.07;;;;;;;18.06;87.40;96465.41;5005918;28;20054;-62
2022/06/21 00:45:02;;;;;;;5.90;4.22;;;;;;;18.03;88.01;96466.28;5006806;28;20064;-62
2022/06/21 00:47:45;;;;;;;4.35;3.88;;;;;;;18.05;86.96;96475.06;5006353;28;20049;-60
2022/06/21 00:50:21;;;;;;;5.38;4.07;;;;;;;17.89;85.10;96438.56;5005316;28;20153;-61
2022/06/21 00:52:47;;;;;;;3.63;3.33;;;;;;;18.26;83.87;96473.81;5004915;28;20065;-61
2022/06/21 00:55:53;;;;;;;4.72;3.53;;;;;;;18.22;83.22;96482.28;5006125;28;20433;-61
2022/06/21 00:58:23;;;;;;;7.18;2.97;;;;;;;17.95;82.88;96450.84;5011424;28;20065;-60
2022/06/21 01:00:55;;;;;;;3.70;3.40;;;;;;;18.11;82.62;96476.13;5007037;28;20140;-62
2022/06/21 01:03:47;;;;;;;4.70;3.22;;;;;;;18.08;82.32;96479.78;5006797;28;20127;-62
2022/06/21 01:06:31;;;;;;;3.53;3.22;;;;;;;18.06;82.88;96482.22;5006052;28;20053;-61
2022/06/21 01:09:08;;;;;;;3.67;3.10;;;;;;;17.96;83.31;96467.22;5006023;28;20056;-61
2022/06/21 01:11:50;;;;;;;3.53;3.13;;;;;;;17.84;83.39;96467.06;5006037;28;20057;-62
2022/06/21 01:14:21;;;;;;;3.50;3.20;;;;;;;17.29;84.43;96389.31;5004796;28;21365;-62
2022/06/21 01:16:48;;;;;;;4.35;3.47;;;;;;;17.41;84.22;96407.50;5019080;28;20073;-62
2022/06/21 01:19:52;;;;;;;4.05;3.30;;;;;;;17.64;85.05;96460.69;5006935;28;20058;-61
2022/06/21 01:22:28;;;;;;;4.45;3.33;;;;;;;17.65;85.04;96451.06;5004387;28;20058;-61
2022/06/21 01:25:12;;;;;;;3.10;2.70;;;;;;;17.65;84.66;96457.47;5005687;28;20536;-60
2022/06/21 01:27:39;;;;;;;4.90;4.10;;;;;;;17.45;85.26;96447.47;5004686;28;20052;-60
2022/06/21 01:30:07;;;;;;;6.25;3.55;;;;;;;17.42;85.45;96442.69;5018356;28;20053;-60
2022/06/21 01:32:35;;;;;;;4.80;3.70;;;;;;;17.42;86.41;96460.28;5004015;28;20057;-60
2022/06/21 01:35:09;;;;;;;3.70;3.40;;;;;;;17.41;86.15;96463.50;5005445;28;20050;-60
2022/06/21 01:37:36;;;;;;;5.57;3.65;;;;;;;16.96;85.94;96400.78;5005937;28;20058;-61
2022/06/21 01:40:11;;;;;;;6.32;3.92;;;;;;;16.54;94.06;96450.63;5004669;28;20054;-61
2022/06/21 01:42:50;;;;;;;6.07;4.07;;;;;;;16.93;92.22;96463.19;5003863;28;20054;-61
2022/06/21 01:45:23;;;;;;;7.60;3.85;;;;;;;16.87;91.32;96445.28;5005172;28;20061;-61
2022/06/21 01:48:03;;;;;;;5.97;4.13;;;;;;;16.35;90.80;96370.22;5004119;28;20054;-61
2022/06/21 01:50:33;;;;;;;6.20;3.95;;;;;;;16.00;89.79;96298.16;5005545;28;20053;-61
2022/06/21 01:53:02;;;;;;;6.85;3.78;;;;;;;16.72;90.30;96410.41;5005494;28;20119;-61
2022/06/21 01:55:39;;;;;;;4.40;3.45;;;;;;;17.00;89.99;96454.66;5005062;28;20075;-60
2022/06/21 01:58:11;;;;;;;5.15;3.45;;;;;;;16.93;89.90;96449.97;5004024;28;20057;-61
2022/06/21 02:00:43;;;;;;;3.95;3.33;;;;;;;16.87;90.09;96454.47;5004123;28;20062;-61
2022/06/21 02:03:15;;;;;;;4.25;3.72;;;;;;;16.74;89.66;96424.75;5005587;28;20061;-61
2022/06/21 02:05:51;;;;;;;6.97;3.83;;;;;;;16.82;89.65;96429.78;5005061;28;20052;-61
2022/06/21 02:08:23;;;;;;;4.47;3.78;;;;;;;16.95;89.81;96449.53;5003943;28;20061;-61
2022/06/21 02:10:56;;;;;;;8.60;5.00;;;;;;;16.97;88.81;96444.31;5003981;28;20068;-61
2022/06/21 02:13:28;;;;;;;3.58;3.25;;;;;;;16.91;89.86;96441.22;5005596;28;20090;-60
2022/06/21 02:16:00;;;;;;;5.63;3.92;;;;;;;16.63;89.37;96412.94;5005118;28;20058;-61
2022/06/21 02:18:32;;;;;;;4.28;3.88;;;;;;;16.45;89.55;96388.84;5004047;28;20062;-61
2022/06/21 02:21:29;;;;;;;6.13;4.35;;;;;;;16.76;90.91;96441.88;5005160;28;20527;-61
2022/06/21 02:23:58;;;;;;;6.75;3.85;;;;;;;16.63;90.72;96440.91;5005194;28;20085;-60
2022/06/21 02:26:29;;;;;;;4.13;3.60;;;;;;;16.70;90.24;96449.16;5004161;28;20058;-62
2022/06/21 02:28:56;;;;;;;7.10;3.97;;;;;;;16.63;89.84;96448.09;5004918;28;20053;-62
2022/06/21 02:31:26;;;;;;;4.82;3.70;;;;;;;16.54;90.95;96450.63;5005002;28;20062;-61
2022/06/21 02:33:59;;;;;;;5.82;4.38;;;;;;;15.88;91.26;96345.44;5005314;28;20050;-62
2022/06/21 02:36:34;;;;;;;3.92;3.40;;;;;;;15.62;91.05;96310.69;5005472;28;20064;-61
2022/06/21 02:39:05;;;;;;;7.80;4.30;;;;;;;16.42;90.62;96426.00;5005528;28;20535;-62
2022/06/21 02:41:41;;;;;;;4.10;3.30;;;;;;;16.23;90.61;96406.38;5004059;28;20058;-61
2022/06/21 02:44:21;;;;;;;4.50;3.67;;;;;;;16.39;90.96;96438.03;5005435;28;20064;-62
2022/06/21 02:46:53;;;;;;;4.68;3.90;;;;;;;15.39;90.34;96279.94;5005178;28;20468;-61
2022/06/21 02:49:29;;;;;;;7.65;3.67;;;;;;;16.07;90.55;96393.03;5003670;28;20064;-61
2022/06/21 02:52:08;;;;;;;5.13;3.25;;;;;;;15.76;90.52;96346.78;5004845;28;20058;-61
2022/06/21 02:54:42;;;;;;;5.55;3.35;;;;;;;16.35;89.58;96434.53;5005090;28;20057;-61
2022/06/21 02:57:20;;;;;;;3.58;3.17;;;;;;;16.21;90.13;96408.78;5005289;28;20064;-61
2022/06/21 02:59:49;;;;;;;4.03;3.40;;;;;;;15.93;89.49;96365.28;5004047;28;20072;-62
2022/06/21 03:02:21;;;;;;;5.85;3.17;;;;;;;16.33;89.76;96425.75;5005192;28;20064;-62
2022/06/21 03:04:56;;;;;;;4.70;3.88;;;;;;;16.21;89.78;96408.78;5006209;28;20456;-60
2022/06/21 03:07:28;;;;;;;4.28;2.92;;;;;;;16.21;89.82;96415.19;5008938;28;20061;-61
2022/06/21 03:09:56;;;;;;;5.28;3.67;;;;;;;15.58;91.03;96348.25;5008914;28;20058;-61
2022/06/21 03:12:28;;;;;;;4.60;3.65;;;;;;;15.96;90.13;96398.00;5008823;28;20574;-61
2022/06/21 03:15:04;;;;;;;3.40;3.05;;;;;;;16.32;89.29;96423.38;5008863;28;20467;-61
2022/06/21 03:17:38;;;;;;;5.47;3.30;;;;;;;16.07;89.72;96398.63;5008754;28;20137;-61
2022/06/21 03:20:14;;;;;;;6.35;3.72;;;;;;;16.36;89.25;96410.94;5007031;28;20053;-61
2022/06/21 03:22:41;;;;;;;4.38;3.10;;;;;;;16.09;88.25;96357.06;5007178;28;20050;-60
2022/06/21 03:25:19;;;;;;;4.72;2.88;;;;;;;16.41;88.44;96424.44;5008389;28;20050;-61
2022/06/21 03:27:57;;;;;;;3.85;3.33;;;;;;;16.00;88.88;96395.94;5008666;28;20065;-60
2022/06/21 03:30:34;;;;;;;3.38;3.08;;;;;;;16.27;88.57;96407.91;5008137;28;20544;-60
2022/06/21 03:33:03;;;;;;;5.63;3.25;;;;;;;16.30;89.07;96423.00;5006656;28;20141;-62
2022/06/21 03:35:33;;;;;;;3.70;3.25;;;;;;;16.43;87.93;96410.84;5008387;28;20064;-61
2022/06/21 03:38:01;;;;;;;6.03;4.07;;;;;;;16.35;88.26;96392.59;5007298;28;20046;-62
2022/06/21 03:43:16;;;;;;;4.82;3.63;;;;;;;16.87;86.00;96400.53;5008506;28;20148;-61
2022/06/21 03:45:47;;;;;;;5.45;3.80;;;;;;;16.98;84.90;96401.13;5008130;28;20065;-62
2022/06/21 03:48:26;;;;;;;4.70;3.22;;;;;;;16.66;84.70;96344.97;5006832;28;20062;-61
2022/06/21 03:51:03;;;;;;;6.93;3.85;;;;;;;17.13;84.76;96396.84;5008228;28;20086;-61
2022/06/21 03:53:40;;;;;;;5.13;3.42;;;;;;;17.41;82.46;96401.91;5006666;28;20075;-61
2022/06/21 03:56:18;;;;;;;4.32;3.58;;;;;;;17.60;81.42;96403.94;5006548;28;20057;-61
2022/06/21 03:59:25;;;;;;;3.97;3.53;;;;;;;17.64;81.35;96399.06;5007948;28;20056;-62
2022/06/21 04:01:55;;;;;;;4.03;3.03;;;;;;;17.90;80.30;96410.09;5007805;28;20057;-61
2022/06/21 04:04:41;;;;;;;4.90;3.97;;;;;;;18.08;79.57;96401.31;5007686;28;20096;-63
2022/06/21 04:07:21;;;;;;;4.68;3.55;;;;;;;18.29;78.64;96406.41;5006893;28;20104;-63
2022/06/21 04:09:51;;;;;;;6.43;3.53;;;;;;;18.46;77.44;96405.25;5005887;28;20073;-61
2022/06/21 04:12:24;;;;;;;5.97;3.58;;;;;;;18.49;77.25;96398.75;5007128;28;20054;-61
2022/06/21 04:14:54;;;;;;;;;;;;;;;18.57;77.48;96404.97;5006735;28;20324;-61
2022/06/21 04:17:31;;;;;;;4.88;3.55;;;;;;;18.70;77.34;96398.22;5006347;28;19925;-61
2022/06/21 04:20:06;;;;;;;7.40;4.72;;;;;;;18.96;75.34;96399.97;5006344;28;20057;-62
2022/06/21 04:22:50;;;;;;;5.60;3.33;;;;;;;19.00;74.79;96405.50;5007483;28;20513;-62
2022/06/21 04:25:32;;;;;;;5.07;3.63;;;;;;;19.12;74.36;96391.53;5006976;28;20527;-62
2022/06/21 04:28:08;;;;;;;4.20;3.70;;;;;;;18.68;73.81;96299.69;5007378;28;20053;-62
2022/06/21 04:30:43;;;;;;;5.28;3.88;;;;;;;19.40;72.30;96387.97;5005319;28;20046;-62
2022/06/21 04:33:24;;;;;;;7.30;3.50;;;;;;;19.53;72.07;96397.22;5006584;28;20054;-62
2022/06/21 04:35:56;;;;;;;5.28;3.80;;;;;;;19.67;71.78;96392.41;5006974;28;20650;-62
2022/06/21 04:38:29;;;;;;;5.15;3.63;;;;;;;19.87;70.77;96384.63;5007283;28;20050;-61
2022/06/21 04:41:30;;;;;;;9.10;3.97;;;;;;;20.00;70.33;96393.84;5004018;28;20063;-62
2022/06/21 04:44:02;;;;;;;5.93;3.15;;;;;;;20.25;68.72;96382.66;5008206;28;20065;-60
2022/06/21 04:46:56;;;;;;;9.23;5.22;;;;;;;20.34;67.82;96377.16;4985193;28;20057;-61
2022/06/21 04:49:53;;;;;;;7.55;3.88;;;;;;;20.60;67.63;96378.69;5006651;28;20680;-58
2022/06/21 04:52:46;;;;;;;4.30;3.90;;;;;;;20.80;67.55;96368.75;5007066;28;20627;-58
2022/06/21 04:55:15;;;;;;;5.90;3.80;;;;;;;21.09;66.71;96374.22;5006849;28;20551;-58
2022/06/21 04:57:45;;;;;;;11.20;3.90;;;;;;;21.08;65.64;96350.13;5001392;28;20058;-58
2022/06/21 05:00:18;;;;;;;6.13;4.40;;;;;;;21.36;65.46;96356.78;4986651;28;20058;-58
2022/06/21 05:02:53;;;;;;;3.63;3.30;;;;;;;21.05;64.88;96305.19;4985010;28;20484;-57
2022/06/21 05:05:45;;;;;;;5.03;3.58;;;;;;;21.51;65.14;96371.94;5001202;28;20057;-59
2022/06/21 05:08:16;;;;;;;3.90;3.60;;;;;;;21.73;64.41;96379.16;4985138;28;20061;-58
2022/06/21 05:10:50;;;;;;;4.10;3.75;;;;;;;21.80;63.23;96375.28;4985077;28;20057;-59
2022/06/21 05:13:37;;;;;;;5.22;4.30;;;;;;;22.00;63.59;96382.16;4984919;28;20050;-58
2022/06/21 05:16:33;;;;;;;4.70;4.20;;;;;;;22.08;63.22;96386.28;4986061;28;20247;-58
2022/06/21 05:19:33;;;;;;;6.65;4.38;;;;;;;22.15;63.37;96394.47;4980547;28;20058;-59
2022/06/21 05:22:14;;;;;;;6.65;4.50;;;;;;;22.11;62.79;96382.53;4966425;28;20058;-59
2022/06/21 05:24:41;;;;;;;5.15;4.32;;;;;;;22.10;62.63;96330.19;4967051;28;20051;-59
2022/06/21 05:27:25;;;;;;;5.88;5.05;;;;;;;22.32;61.86;96325.25;4981548;28;20050;-59
2022/06/21 05:29:57;;;;;;;7.75;4.95;;;;;;;22.97;61.31;96377.88;4967153;28;20060;-59
2022/06/21 05:32:33;;;;;;;8.73;4.72;;;;;;;22.81;61.57;96356.34;4981465;28;20074;-59
2022/06/21 05:35:17;;;;;;;12.10;5.53;;;;;;;23.29;60.73;96374.50;4966608;28;20739;-59
2022/06/21 05:37:49;;;;;;;6.32;4.60;;;;;;;23.29;60.51;96334.91;4969891;28;20085;-58
2022/06/21 05:40:36;;;;;;;7.55;4.05;;;;;;;23.58;60.81;96363.50;4982998;28;20065;-61
2022/06/21 05:43:03;;;;;;;7.88;3.78;;;;;;;23.79;59.99;96357.66;4981911;28;20066;-57
2022/06/21 05:45:34;;;;;;;8.02;4.15;;;;;;;24.07;59.74;96363.31;4984641;28;20046;-57
2022/06/21 05:48:13;;;;;;;5.45;3.97;;;;;;;24.15;59.94;96353.22;4983369;28;20050;-57
2022/06/21 05:50:40;;;;;;;4.60;4.13;;;;;;;24.34;59.48;96364.03;4983945;28;20120;-58
2022/06/21 05:53:20;;;;;;;8.55;4.40;;;;;;;24.42;59.93;96347.47;4982832;28;20054;-60
2022/06/21 05:55:48;;;;;;;5.95;4.20;;;;;;;24.67;59.68;96347.06;4985177;28;20046;-59
2022/06/21 05:58:26;;;;;;;5.90;4.65;;;;;;;24.76;59.40;96355.50;4998098;28;20050;-58
2022/06/21 06:01:00;;;;;;;8.52;3.97;;;;;;;25.04;57.99;96354.06;4986014;28;20532;-59
2022/06/21 06:03:58;;;;;;;8.65;4.00;;;;;;;25.23;57.42;96344.97;4984749;28;20125;-58
2022/06/21 06:06:34;;;;;;;5.57;4.13;;;;;;;25.49;57.38;96338.81;4991277;28;20544;-59
2022/06/21 06:09:39;;;;;;;6.47;4.68;;;;;;;25.73;56.55;96348.06;4982942;28;20046;-60
2022/06/21 06:12:18;;;;;;;5.65;4.22;;;;;;;26.01;55.25;96355.06;4982766;28;20089;-59
2022/06/21 06:15:13;;;;;;;5.10;4.60;;;;;;;26.19;54.51;96403.91;4981970;28;20142;-57
2022/06/21 06:18:01;;;;;;;7.95;5.10;;;;;;;26.31;53.85;96365.13;4983207;28;20054;-60
2022/06/21 06:20:28;;;;;;;5.20;4.32;;;;;;;26.21;52.71;96349.47;4984715;28;20129;-60
2022/06/21 06:23:07;;;;;;;6.82;4.40;;;;;;;26.38;51.23;96342.03;4985062;28;20054;-57
2022/06/21 06:25:34;;;;;;;4.20;3.85;;;;;;;26.59;49.68;96355.00;4984711;28;20490;-57
2022/06/21 06:28:27;;;;;;;4.97;4.25;;;;;;;26.68;49.07;96343.56;4999229;28;20054;-57
2022/06/21 06:30:57;;;;;;;4.05;3.63;;;;;;;26.77;48.40;96340.59;4978552;28;20050;-57
2022/06/21 06:33:55;;;;;;;4.35;4.03;;;;;;;26.61;48.39;96281.44;4981724;28;20055;-56
2022/06/21 06:36:26;;;;;;;5.80;5.22;;;;;;;26.83;47.93;96327.25;4964234;28;20137;-59
2022/06/21 06:38:54;;;;;;;5.70;3.95;;;;;;;26.79;47.94;96315.31;4982965;28;20058;-57
2022/06/21 06:42:00;;;;;;;7.43;4.30;;;;;;;27.17;47.41;96340.66;4972942;28;20058;-60
2022/06/21 06:44:38;;;;;;;7.13;5.22;;;;;;;27.34;47.38;96338.06;4983228;28;20054;-59
2022/06/21 06:47:13;;;;;;;5.38;4.68;;;;;;;27.47;47.33;96324.25;4982106;28;20050;-58
2022/06/21 06:49:59;;;;;;;5.28;4.28;;;;;;;27.56;46.94;96333.41;4983899;28;20039;-61
2022/06/21 06:52:34;;;;;;;5.28;4.88;;;;;;;27.80;46.41;96330.31;4982586;28;20054;-61
2022/06/21 06:55:19;;;;;;;4.40;4.10;;;;;;;28.11;46.50;96338.94;4997611;28;20050;-61
2022/06/21 06:58:25;;;;;;;6.60;4.57;;;;;;;28.09;46.37;96318.72;4981059;28;20058;-57
2022/06/21 07:01:02;;;;;;;5.22;4.82;;;;;;;28.29;46.03;96326.41;4982354;28;20053;-57
2022/06/21 07:03:34;;;;;;;6.03;5.40;;;;;;;28.27;46.06;96294.78;4982365;28;20432;-57
2022/06/21 07:06:07;;;;;;;5.28;4.53;;;;;;;28.47;45.65;96321.13;4981144;28;20065;-59
2022/06/21 07:09:00;;;;;;;6.95;5.07;;;;;;;28.66;45.20;96332.97;4984491;28;20061;-57
2022/06/21 07:11:30;;;;;;;;;;;;;;;28.68;43.94;96331.16;4984154;28;20063;-62
2022/06/21 07:13:59;;;;;;;5.32;4.85;;;;;;;28.71;44.63;96335.06;4984582;28;20304;-60
2022/06/21 07:16:28;;;;;;;4.65;4.28;;;;;;;28.36;43.89;96283.22;4984169;28;20102;-62
2022/06/21 07:18:59;;;;;;;7.13;4.85;;;;;;;28.52;43.73;96293.97;4984570;28;20406;-57
2022/06/21 07:21:26;;;;;;;5.90;4.78;;;;;;;28.73;43.88;96333.28;4998200;28;20815;-58
2022/06/21 07:23:59;;;;;;;7.28;4.15;;;;;;;28.32;43.79;96249.25;4983598;28;20055;-61
2022/06/21 07:26:31;;;;;;;5.07;4.68;;;;;;;28.91;43.93;96332.09;4982430;28;20153;-57
2022/06/21 07:29:16;;;;;;;4.97;4.57;;;;;;;28.78;42.50;96340.31;4982913;28;20121;-56
2022/06/21 07:31:48;;;;;;;5.45;5.05;;;;;;;28.40;42.68;96303.72;4975164;28;20063;-57
2022/06/21 07:34:27;;;;;;;5.37;4.67;;;;;;;28.91;43.29;96337.81;4980410;28;20075;-58
2022/06/21 07:37:23;;;;;;;8.07;5.00;;;;;;;29.14;42.50;96333.81;4981602;28;20139;-61
2022/06/21 07:39:57;;;;;;;5.47;4.97;;;;;;;29.43;41.76;96327.75;4991741;28;20081;-60
2022/06/21 07:42:30;;;;;;;7.75;4.93;;;;;;;29.52;39.45;96318.94;4980975;28;20070;-60
2022/06/21 07:45:15;;;;;;;5.55;5.05;;;;;;;29.58;39.05;96325.47;4982084;28;20527;-57
2022/06/21 07:47:53;;;;;;;5.50;5.07;;;;;;;29.43;39.10;96324.91;4983384;28;20064;-59
2022/06/21 07:50:32;;;;;;;5.78;5.20;;;;;;;29.58;39.51;96316.91;4970554;28;20057;-56
2022/06/21 07:53:15;;;;;;;5.82;5.32;;;;;;;29.59;39.67;96318.47;4983419;28;20074;-60
2022/06/21 07:56:06;;;;;;;5.90;5.40;;;;;;;29.49;40.05;96297.16;4985211;28;20058;-60
2022/06/21 07:58:41;;;;;;;5.20;4.70;;;;;;;29.74;40.50;96312.56;4986468;28;20054;-62
2022/06/21 08:07:09;;;;;;;6.63;4.68;;;;;;;30.15;37.96;96325.88;4984384;28;20136;-58
2022/06/21 08:09:48;;;;;;;9.65;5.38;;;;;;;30.10;38.71;96323.81;4977886;28;21854;-57
2022/06/21 08:12:16;;;;;;;5.50;5.00;;;;;;;30.25;39.06;96317.88;4997731;28;20062;-59
2022/06/21 08:14:43;;;;;;;7.95;5.03;;;;;;;30.08;38.88;96292.09;4978620;28;20046;-61
2022/06/21 08:17:36;;;;;;;6.43;5.82;;;;;;;30.38;38.42;96313.19;4980301;28;20077;-56
2022/06/21 08:20:34;;;;;;;5.53;4.55;;;;;;;30.28;37.99;96323.34;4982902;28;20046;-59
2022/06/21 08:23:08;;;;;;;6.47;4.55;;;;;;;29.97;38.28;96269.22;4982363;28;20062;-59
2022/06/21 08:26:26;;;;;;;5.57;5.05;;;;;;;30.52;37.61;96317.91;4986845;28;20054;-56
2022/06/21 08:29:27;;;;;;;4.72;4.40;;;;;;;30.70;37.86;96325.13;4995853;28;20061;-56
2022/06/21 08:32:20;;;;;;;7.35;5.18;;;;;;;30.78;36.87;96329.84;4967287;28;20486;-56
2022/06/21 08:34:50;;;;;;;5.97;5.40;;;;;;;30.73;36.74;96327.75;4982678;28;20058;-56
2022/06/21 08:37:54;;;;;;;5.45;4.90;;;;;;;30.90;35.90;96324.91;4980948;28;20054;-58
2022/06/21 08:40:30;;;;;;;5.15;4.80;;;;;;;31.11;35.80;96331.09;4984605;28;20069;-58
2022/06/21 08:43:21;;;;;;;5.78;4.72;;;;;;;31.15;34.62;96331.59;4983635;28;20395;-60
2022/06/21 08:45:50;;;;;;;7.22;6.05;;;;;;;31.04;35.81;96325.91;4983243;28;20077;-59
2022/06/21 08:49:06;;;;;;;6.68;4.97;;;;;;;31.16;35.12;96333.19;4975472;28;20058;-60
2022/06/21 08:51:42;;;;;;;5.32;4.93;;;;;;;31.20;35.38;96334.47;4974678;28;20061;-60
2022/06/21 08:54:31;;;;;;;5.32;4.93;;;;;;;31.18;34.56;96324.81;4998864;28;20062;-59
2022/06/21 08:57:31;;;;;;;8.00;5.20;;;;;;;31.36;34.88;96330.03;4985112;28;20145;-61
2022/06/21 09:00:25;;;;;;;5.18;4.72;;;;;;;31.30;34.29;96326.38;4979567;28;20062;-58
2022/06/21 09:03:01;;;;;;;4.82;4.50;;;;;;;31.29;34.78;96324.78;4975520;28;20058;-59
2022/06/21 09:06:01;;;;;;;4.78;4.47;;;;;;;31.40;33.50;96319.06;4981094;28;20057;-58
2022/06/21 09:09:10;;;;;;;5.00;4.70;;;;;;;31.61;33.34;96328.88;4977371;28;20330;-58
2022/06/21 09:11:51;;;;;;;4.60;4.10;;;;;;;31.31;33.98;96282.16;4979296;28;20069;-58
2022/06/21 09:14:36;;;;;;;4.70;4.38;;;;;;;31.68;33.03;96329.09;4979541;28;20063;-58
2022/06/21 09:17:11;;;;;;;5.55;5.15;;;;;;;31.79;35.44;96329.03;4973150;28;20501;-60
2022/06/21 09:20:10;;;;;;;4.85;4.47;;;;;;;32.07;34.03;96321.09;4978534;28;20062;-57
2022/06/21 09:23:08;;;;;;;4.82;4.47;;;;;;;31.97;33.73;96336.28;4981792;28;20058;-61
2022/06/21 09:25:47;;;;;;;5.40;4.88;;;;;;;32.32;35.06;96319.09;4985155;28;20489;-58
2022/06/21 09:28:37;;;;;;;5.35;4.95;;;;;;;32.46;33.61;96311.44;4982498;28;20065;-56
2022/06/21 09:31:08;;;;;;;4.82;4.43;;;;;;;32.49;32.14;96322.66;4996142;28;20050;-57
2022/06/21 09:33:46;;;;;;;4.55;4.15;;;;;;;32.47;30.22;96313.03;4983429;28;20493;-62
2022/06/21 09:36:24;;;;;;;4.78;4.38;;;;;;;32.55;31.98;96309.03;4983389;28;20061;-61
2022/06/21 09:39:06;;;;;;;4.82;4.53;;;;;;;32.54;32.95;96313.22;4984306;28;20057;-63
2022/06/21 09:41:40;;;;;;;8.55;6.10;;;;;;;32.42;32.62;96306.03;4997598;28;20054;-61
2022/06/21 09:44:16;;;;;;;5.85;4.93;;;;;;;32.41;32.89;96310.19;4984903;28;20494;-65
2022/06/21 09:46:50;;;;;;;4.90;4.50;;;;;;;32.45;32.63;96282.03;4984290;28;20580;-61
2022/06/21 09:49:40;;;;;;;4.47;4.18;;;;;;;32.47;32.94;96296.56;4994801;28;20065;-62
2022/06/21 09:52:34;;;;;;;4.70;4.30;;;;;;;32.57;33.02;96294.94;4982878;28;20382;-62
2022/06/21 09:55:07;;;;;;;5.00;4.70;;;;;;;32.41;33.68;96310.19;4982111;28;20514;-61
2022/06/21 09:58:09;;;;;;;5.65;5.15;;;;;;;32.31;33.41;96306.09;4983917;28;20070;-61
2022/06/21 10:00:44;;;;;;;6.53;5.00;;;;;;;31.82;34.43;96224.84;4984377;28;20043;-60
2022/06/21 10:03:42;;;;;;;5.10;4.70;;;;;;;32.49;34.68;96299.69;4978145;28;20120;-62
2022/06/21 10:06:22;;;;;;;5.32;4.80;;;;;;;32.36;34.05;96259.38;4976498;28;20437;-60
2022/06/21 10:09:08;;;;;;;5.60;5.10;;;;;;;32.46;34.53;96300.78;4984508;28;20061;-63
2022/06/21 10:12:09;;;;;;;5.32;4.85;;;;;;;32.82;33.75;96287.91;4985331;28;20053;-61
2022/06/21 10:14:41;;;;;;;5.43;5.03;;;;;;;32.92;32.08;96286.28;4982456;28;20089;-61
2022/06/21 10:17:11;;;;;;;4.33;4.03;;;;;;;33.04;32.92;96270.50;4983595;28;20497;-58
2022/06/21 10:19:44;;;;;;;4.97;4.68;;;;;;;33.33;32.28;96275.38;4999917;28;20306;-57
2022/06/21 10:22:28;;;;;;;4.20;3.90;;;;;;;33.09;31.91;96261.03;4984563;28;20058;-62
2022/06/21 10:24:55;;;;;;;4.57;3.92;;;;;;;33.26;31.62;96281.72;4984096;28;20050;-62
2022/06/21 10:27:40;;;;;;;4.47;4.18;;;;;;;33.38;30.56;96311.88;4982541;28;20066;-61
2022/06/21 10:30:20;;;;;;;4.07;3.78;;;;;;;33.46;30.91;96266.91;4983094;28;20196;-60
2022/06/21 10:33:06;;;;;;;4.53;4.22;;;;;;;33.61;30.87;96270.09;4981967;28;20061;-57
2022/06/21 10:35:54;;;;;;;4.45;4.05;;;;;;;33.77;32.01;96271.16;4981712;28;20066;-56
2022/06/21 10:38:26;;;;;;;4.78;4.30;;;;;;;33.86;30.21;96270.03;4982509;28;20054;-57
2022/06/21 10:40:59;;;;;;;5.00;4.63;;;;;;;33.69;30.87;96261.63;4983595;28;20050;-56
2022/06/21 10:43:37;;;;;;;5.50;4.47;;;;;;;33.75;31.32;96262.31;4984609;28;20054;-59
2022/06/21 10:46:17;;;;;;;4.72;4.40;;;;;;;33.36;31.16;96204.59;4983836;28;20061;-64
2022/06/21 10:49:20;;;;;;;4.53;4.22;;;;;;;33.78;30.66;96253.38;4982998;28;20061;-56
2022/06/21 10:52:05;;;;;;;4.88;4.57;;;;;;;33.92;30.92;96256.38;4982930;28;20141;-57
2022/06/21 10:55:09;;;;;;;4.50;4.20;;;;;;;34.12;30.77;96252.91;4978331;28;20061;-63
2022/06/21 10:58:08;;;;;;;4.72;4.22;;;;;;;34.12;31.30;96252.91;4973048;28;20113;-57
2022/06/21 11:04:29;;;;;;;6.78;6.07;;;;;;;33.99;31.59;96255.75;4976224;28;20513;-64
2022/06/21 11:07:34;;;;;;;6.65;5.90;;;;;;;34.02;31.62;96251.78;4984679;28;20047;-63
2022/06/21 11:10:07;;;;;;;8.35;5.20;;;;;;;33.74;31.68;96267.31;4983784;28;20054;-60
2022/06/21 11:12:54;;;;;;;7.25;5.40;;;;;;;33.49;31.63;96254.31;4984563;28;20050;-60
2022/06/21 11:15:33;;;;;;;6.78;5.38;;;;;;;33.68;31.95;96254.31;4984203;28;20046;-56
2022/06/21 11:18:11;;;;;;;5.35;4.88;;;;;;;33.69;32.70;96262.41;4984568;28;20058;-60
2022/06/21 11:20:50;;;;;;;6.13;5.53;;;;;;;33.76;33.13;96249.50;4983422;28;20058;-61
2022/06/21 11:23:44;;;;;;;8.48;6.13;;;;;;;33.72;33.32;96260.53;4983879;28;20490;-62
2022/06/21 11:26:25;;;;;;;;;;;;;;;33.44;34.88;96258.03;4986598;28;20548;-61
2022/06/21 11:29:22;;;;;;;8.90;6.28;;;;;;;33.60;34.46;96265.66;4988182;28;20088;-61
2022/06/21 11:32:03;;;;;;;9.73;6.90;;;;;;;33.50;34.22;96250.13;4987712;28;20605;-61
2022/06/21 11:34:46;;;;;;;6.90;5.97;;;;;;;33.64;34.56;96257.50;4987389;28;20161;-62
2022/06/21 11:37:31;;;;;;;;;;;;;;;33.42;35.40;96257.78;4987938;28;20433;-63
2022/06/21 11:40:43;;;;;;;10.02;7.55;;;;;;;33.52;34.89;96258.97;4987651;28;19926;-60
2022/06/21 11:43:31;;;;;;;9.88;7.00;;;;;;;33.30;35.62;96264.97;5002361;28;20058;-60
2022/06/21 11:46:07;;;;;;;10.23;7.93;;;;;;;32.73;36.41;96279.66;4987331;28;20433;-59
2022/06/21 11:48:57;;;;;;;8.73;7.93;;;;;;;32.50;36.03;96254.59;5001101;28;20433;-63
2022/06/21 11:51:49;;;;;;;18.48;8.60;;;;;;;32.76;36.79;96255.63;4971101;28;20480;-58
2022/06/21 11:54:32;;;;;;;8.55;7.50;;;;;;;32.57;36.94;96180.19;4987068;28;20066;-58
2022/06/21 11:57:24;;;;;;;8.80;7.97;;;;;;;32.98;35.83;96246.81;4985965;28;20569;-56
2022/06/21 11:59:54;;;;;;;12.38;8.63;;;;;;;33.00;37.20;96258.53;4978247;28;20622;-59
2022/06/21 12:02:37;;;;;;;9.13;8.20;;;;;;;32.84;36.75;96242.25;5001920;28;20061;-59
2022/06/21 12:05:15;;;;;;;10.33;8.30;;;;;;;33.09;36.11;96243.81;4996943;28;20054;-64
2022/06/21 12:08:16;;;;;;;8.55;7.82;;;;;;;33.54;35.50;96238.31;4986235;28;20330;-61
2022/06/21 12:11:08;;;;;;;8.93;8.13;;;;;;;33.26;36.11;96238.66;4984612;28;20050;-59
2022/06/21 12:13:55;;;;;;;9.38;8.20;;;;;;;33.16;35.63;96231.75;4983761;28;20050;-58
2022/06/21 12:16:28;;;;;;;9.30;8.35;;;;;;;33.26;36.24;96227.16;4982012;28;20061;-57
2022/06/21 12:19:03;;;;;;;10.02;9.05;;;;;;;33.21;35.52;96233.75;4986045;28;20143;-57
2022/06/21 12:21:34;;;;;;;8.02;7.32;;;;;;;33.48;34.77;96229.78;4981187;28;20529;-57
2022/06/21 12:24:15;;;;;;;10.85;8.32;;;;;;;33.78;33.79;96217.34;4985177;28;20494;-57
2022/06/21 12:26:43;;;;;;;9.35;7.93;;;;;;;34.08;33.78;96212.22;4983560;28;20050;-59
2022/06/21 12:29:18;;;;;;;9.18;7.55;;;;;;;34.99;32.78;96198.03;4976414;28;20519;-56
2022/06/21 12:31:55;;;;;;;10.13;8.00;;;;;;;35.77;31.17;96215.25;4986043;28;20980;-66
2022/06/21 12:34:33;;;;;;;8.60;7.75;;;;;;;35.91;30.58;96155.47;4985658;28;20587;-66
2022/06/21 12:37:05;;;;;;;11.15;7.68;;;;;;;37.29;29.89;96200.91;4984218;28;20058;-58
2022/06/21 12:39:44;;;;;;;11.02;8.15;;;;;;;37.71;29.20;96213.84;4985145;28;20238;-58
2022/06/21 12:42:35;;;;;;;9.02;8.00;;;;;;;37.85;29.61;96212.34;4983573;28;20062;-60